메인 페이지
METAR-TAF:

METAR-TAF

공항 :

볼더, 콜로라도, 미국

위도: 40-02-22N, 경도: 105-13-33W, 고도: 1612m

현재 날씨관측

예보는 17분 전, 16:12시(UTC)에 발표되었습니다.
북북서4kt
온도 5°C
습도 52%
기압 1027 hPa
시정: 16.1km
맑음

METAR: KBDU 141612Z AUTO 34004KT 10SM CLR 05/M04 A3034 RMK AO2

시각: 09:29 (16:29 UTC)


TAF: 누락

4,000개 이상의 공항 관측 자료 및 예보 (METAR 및 TAF 보고).

지도상에서 검색 가능한 기상관측소가 노란 점과 빨간 점으로 표시되어 있습니다.

기상관측소 명을 보려면 표시 위로 마우스를 이동하세요.

날씨 관측과 예보를 보려면 클릭하세요.

지도 변경 : 확대하려면 엑스 표시가 있는 녹색 버튼, 축소하려면 빼기 표시가 있는 녹색 버튼, 다음 페이지의 지도를 보려면 녹색 화살표를 클릭하세요.


METAR-TAF: